Killamarsh, United Kingdom
Current Conditions -  °F | °C
As of 8:20 AM on Friday 24 Oct 2014 (Local Time) from EGCN Reporting Station
Overcast Overcast  
Wind Chill: 57°   Ceiling: 2000
Heat Index: 57°   Visibility: 6mi
Dew Point: 54°   Wind: 10mph
Humidity: 88%   Direction: 200°SSW
Pressure: 29.91"   Gusts: NA
Location:  53.32°N, 1.32°W
Report Text: EGCN 240720Z 20009KT 9999 OVC020 14/12 Q1013
Loading
Personal Weather Stations






























Interactive Weather Map
Tropical Storm Tracking
New forecast layout! Learn more

10-Day Weather Forecast

Advertisements
Track Severe Weather on mobile